Pagina principale
METAR-TAF:

METAR-TAF

Aeroporti :

Selebi-Phikwe, Botswana

latitudine: 22-03-19S, longitudine: 027-49-13E, altezza: 892 m

Osservazione

Il bollettino è stato emesso 39 minuti fa, alle 12:00 UTC
Vento 3 kt da nord-est
Temperature 23°C
Umidità 47%
Pressione 1024 hPa
Visibilità 10 km o più
nessuna nube inferiore a 1500 m e nessun cumulonembo

METAR: FBSP 271200Z 04003KT CAVOK 23/11 Q1024

Ora: 14:39 (12:39 UTC)

Previsione

Il bollettino è stato emesso 3 ore e 39 minuti fa, alle 09:00 UTC
Previsione valida dal 27 alle 12 UTC al 27 alle 21 UTC
Vento 4 kt da nord-est
Visibilità 10 km o più
nessuna nube inferiore a 1500 m e nessun cumulonembo

TAF: FBSP 270900Z 2712/2721 05004KT CAVOK

Osservazioni e previsioni meteorologiche di più di 4000 aeroporti (messaggi METAR e TAF).

Le stazioni disponibili sono rappresentate dai dischi gialli e rossi sulla carta.

Puntare il mouse per vedere il nome della stazione.

Clicca sopra per visualizzare le osservazioni e previsioni meteorologiche.

Per cambiare la mappa : fare clic sui pulsanti verdi con una croce nera per ingrandire, il pulsante verde con un trattino per diminuire, o sulla freccia verde per le mappe adiacenti.


METAR-TAF: